Terminal Aerodrome Forecast
Issued by NWS Knoxville/Tri Cities, TN

Home | Current Version | Previous Version | Text Only | Print | Product List | Glossary On
Versions: 1 2 3 4 5 6 7 8 9 10 11 12 13 14 15 16 17 18 19 20 21 22 23 24 25 26 27 28 29 30 31
000
FTUS44 KMRX 201720
TAFTYS
TAF
KTYS 201720Z 2018/2118 23009KT P6SM SCT015 OVC060
     FM202000 22008KT P6SM SCT035 BKN050
     FM210600 22004KT P6SM SCT040 BKN150
      TEMPO 2108/2112 4SM BR OVC007
     FM211400 22003KT P6SM OVC015=

USA.gov is the U.S. government's official web portal to all federal, state and local government web resources and services.